• Join FlightAware (Why Join?)
  • Login
  • US Flag 
07:12PM EDT


 

Airport Tracker/Info


-or-


 

Live Flight TrackerFlight Track Log ✈ SWA2130 ✈ 21-Apr-2013 ✈ KSFO - KLAX

Flight Track Log - Related Links

Times and Time Zones

All times are in EDT time to prevent confusion due to time zone crossing. See the SWA2130 flight status page for this flight to view local times or setup timezone preferences in your user account.

Time Position Orientation Groundspeed Altitude Reporting Facility
EDT Latitude Longitude Course Direction KTS MPH feet Rate Location/Type
07:33PM 37.6333 -122.3667 360° North 158 182 1,100  Level Northern Cal TRACON
07:34PM 37.6603 -122.3667 360° North 178 205 1,800 2,460 Climbing Oakland Center
07:35PM 37.6997 -122.4011 325° Northwest 228 262 5,200 3,420 Climbing Oakland Center
07:35PM 37.6833 -122.4333 237° Southwest 248 285 6,600 3,480 Climbing Northern Cal TRACON
07:36PM 37.6000 -122.4500 189° South 302 348 9,900 3,000 Climbing Northern Cal TRACON
07:37PM 37.5469 -122.4378 170° South 308 354 11,800 2,940 Climbing Oakland Center
07:38PM 37.4633 -122.3861 154° Southeast 359 413 15,000 3,000 Climbing Oakland Center
07:39PM 37.4106 -122.2781 122° Southeast 372 428 18,000 2,760 Climbing Oakland Center
07:40PM 37.3347 -122.1789 134° Southeast 391 450 20,700 2,640 Climbing Oakland Center
07:41PM 37.2572 -122.0719 132° Southeast 410 472 23,500 2,460 Climbing Oakland Center
07:42PM 37.1758 -121.9633 133° Southeast 425 489 25,800 2,100 Climbing Oakland Center
07:43PM 37.0928 -121.8494 132° Southeast 439 505 27,800 2,040 Climbing Oakland Center
07:44PM 36.9858 -121.7144 135° Southeast 454 522 30,100 2,100 Climbing Oakland Center
07:45PM 36.8964 -121.5950 133° Southeast 469 540 32,200 2,100 Climbing Oakland Center
07:46PM 36.8111 -121.4792 133° Southeast 457 526 34,500 1,800 Climbing Oakland Center
07:47PM 36.7350 -121.3786 133° Southeast 447 514 35,900 1,200 Climbing Oakland Center
07:48PM 36.6300 -121.2414 134° Southeast 455 524 37,000 480 Climbing Oakland Center
07:49PM 36.5431 -121.1261 133° Southeast 457 526 37,000  Level Oakland Center
07:50PM 36.4556 -121.0133 134° Southeast 453 521 37,000  Level Oakland Center
07:51PM 36.3683 -120.9006 134° Southeast 453 521 37,000  Level Oakland Center
07:52PM 36.2819 -120.7864 133° Southeast 453 521 37,000  Level Oakland Center
07:53PM 36.1933 -120.6728 134° Southeast 456 525 37,000  Level Oakland Center
07:54PM 36.1050 -120.5617 135° Southeast 452 520 37,000  Level Oakland Center
07:55PM 36.0158 -120.4442 133° Southeast 467 537 37,000  Level Oakland Center
07:56PM 35.9278 -120.3339 135° Southeast 453 521 37,000  Level Oakland Center
07:57PM 35.8381 -120.2189 134° Southeast 459 528 37,000  Level Oakland Center
07:58PM 35.7303 -120.0825 134° Southeast 459 528 37,000  Level Oakland Center
07:59PM 35.6381 -119.9703 135° Southeast 461 531 37,000  Level Oakland Center
08:00PM 35.5331 -119.8786 145° Southeast 458 527 37,000  Level Oakland Center
08:01PM 35.4267 -119.7894 146° Southeast 458 527 37,000  Level Oakland Center
08:02PM 35.3217 -119.6978 145° Southeast 460 529 37,000 -300 Level Oakland Center
08:03PM 35.2153 -119.6078 145° Southeast 462 532 36,500 -1,980 Descending Oakland Center
08:05PM 35.0883 -119.4986 145° Southeast 467 537 32,600 -3,000 Descending Los Angeles Center
08:06PM 34.9811 -119.4061 145° Southeast 471 542 29,900 -2,460 Descending Los Angeles Center
08:07PM 34.8756 -119.3175 145° Southeast 465 535 27,600 -1,980 Descending Los Angeles Center
08:08PM 34.7953 -119.2506 146° Southeast 448 516 25,900 -2,280 Descending Los Angeles Center
08:09PM 34.6608 -119.1381 145° Southeast 422 486 22,900 -2,280 Descending Los Angeles Center
08:10PM 34.5831 -119.0708 145° Southeast 409 471 21,200 -1,980 Descending Los Angeles Center
08:11PM 34.4769 -118.9828 146° Southeast 383 441 18,800 -2,160 Descending Los Angeles Center
08:12PM 34.3883 -118.9092 146° Southeast 384 442 16,700 -2,040 Descending Los Angeles Center
08:13PM 34.2936 -118.8583 156° South 370 426 14,600 -2,040 Descending Los Angeles Center
08:14PM 34.1978 -118.8233 163° South 361 415 12,500 -1,800 Descending Los Angeles Center
08:15PM 34.1047 -118.7889 163° South 353 406 10,900 -1,260 Descending Los Angeles Center
08:16PM 34.0339 -118.7131 138° Southeast 306 352 10,000 -540 Descending Los Angeles Center
08:17PM 34.0247 -118.6133 96° East 301 346 9,900 -840 Descending Los Angeles Center
08:18PM 34.0153 -118.5131 96° East 281 323 8,300 -1,380 Descending Los Angeles Center
08:19PM 34.0153 -118.4119 90° East 267 307 6,800 -1,620 Descending Los Angeles Center
08:20PM 34.0247 -118.3231 83° East 265 305 4,700 -1,920 Descending Los Angeles Center
08:21PM 34.0164 -118.2519 98° East 239 275 2,900 -1,260 Descending Los Angeles Center
08:22PM 33.9772 -118.2692 200° South 174 200 2,200 -780 Descending Los Angeles Center
08:23PM 33.9603 -118.3256 250° West 158 182 1,300 -780 Descending Los Angeles Center
08:24PM 33.9567 -118.3697 264° West 144 166 600 -600 Descending Los Angeles Center
08:26PM 33.9517 -118.4164 263° West 137 158 100 -540 Descending Los Angeles Center
08:27PM 33.9425 -118.4081 228° Southwest  Level Estimated
08:34PM 33.9425 -118.4081 228° Southwest  Level Estimated